Aviation Digital Data Service (ADDS)

Output produced by METARs form (0822 UTC 18 November 2018)
found at http://www.aviationweather.gov/metar/data/
 
METAR text: RJFG 180800Z 32004KT 9999 SCT080 16/10 Q1016
Conditions at: RJFG (TANEGASHIMA AIRP, JP) observed 0800 UTC 18 November 2018
Temperature: 16.0°C (61°F)
Dewpoint: 10.0°C (50°F) [RH = 68%]
Pressure (altimeter): 30.00 inches Hg (1016.0 mb)
Winds: from the NW (320 degrees) at 5 MPH (4 knots; 2.1 m/s)
Visibility: 6 or more miles (10+ km)
Ceiling: at least 12,000 feet AGL
Clouds: scattered clouds at 8000 feet AGL
Weather: no significant weather observed at this time